Las Americas, Dominican Republic

1:43 PM AST on January 25, 2015 (GMT -0400)
Las Americas International | Change Station
CLOSE
Current Station
Airport
Location: Las Americas,
Elevation: 59 ft
Nearby Weather Stations

Elev 59 ft 18.43 °N, 69.67 °W | Updated 43 minutes ago

Mostly Cloudy
Mostly Cloudy
84 °F
Feels Like 91 °F
N
5
Wind Variable Wind from ESE

Today
High -- | Low -- °F
--% Chance of Precip.
Yesterday
High -- | Low -- °F
Precip. -- in
7:13 AM 6:28 PM
Waxing Crescent, 34% visible
Pressure 30.01 in
Visibility 6.2 miles
Clouds Mostly Cloudy 1800 ft
Mostly Cloudy 8000 ft
Heat Index 91 °F
Dew Point 73 °F
Humidity 70%
Rainfall 0.00 in
Snow Depth Not available.
UV 7 out of 12
Pollen Not available.
Air Quality Not available.
Flu Activity Not available.
METAR MDSD 251700Z 12004KT 9999 BKN018 BKN080 29/23 Q1016 RERA

More Conditions Fewer Conditions

Pressure 30.01 in
Visibility 6.2 miles
Clouds Mostly Cloudy 1800 ft
Mostly Cloudy 8000 ft
Heat Index 91 °F
Dew Point 73 °F
Humidity 70%
Rainfall 0.00 in
Snow Depth Not available.
UV 7 out of 12
Pollen Not available.
Air Quality Not available.
Flu Activity Not available.
METAR MDSD 251700Z 12004KT 9999 BKN018 BKN080 29/23 Q1016 RERA

More Conditions Fewer Conditions

10-Day Weather Forecast

Almanac

Astronomy

Jan. 25, 2015 Rise Set
Actual Time
Civil Twilight
Nautical Twilight
Astronomical Twilight
Moon
Length of Visible Light
Length of Day
Tomorrow will be .
, % of the Moon is Illuminated

Today's Extremes

Country Highs Country Lows

Community

WunderPhotos

Upload Photos

1,790,002 photos uploaded!

WunderBlogs® & News

Nearby

Air Quality

  Air Quality AQ Index Pollutant
Not available.

Snow Depth

Station Depth Elevation

Earthquake Activity

City Distance Mag. Time & Date
Minimum magnitude displayed is 2.5.

Coastal Water Temperatures

Place Temperature

Nearby Weather Stations